createdAt,value
2023-02-15T00:00:02.624Z,4.98
2023-02-15T00:02:29.121Z,4.96
2023-02-15T00:04:56.979Z,4.90
2023-02-15T00:07:23.577Z,4.94
2023-02-15T00:09:50.071Z,4.90
2023-02-15T00:12:17.634Z,5.00
2023-02-15T00:14:44.679Z,5.00
2023-02-15T00:17:11.628Z,5.00
2023-02-15T00:19:38.211Z,5.00
2023-02-15T00:22:04.858Z,5.00
2023-02-15T00:24:31.381Z,5.00
2023-02-15T00:26:58.042Z,5.00
2023-02-15T00:29:24.782Z,5.00
2023-02-15T00:31:53.135Z,5.00
2023-02-15T00:34:25.275Z,5.00
2023-02-15T00:36:52.532Z,5.00
2023-02-15T00:39:20.098Z,5.00
2023-02-15T00:41:47.784Z,5.00
2023-02-15T00:44:14.809Z,5.00
2023-02-15T00:46:41.373Z,5.00
2023-02-15T00:49:08.030Z,5.00
2023-02-15T00:51:34.540Z,5.00
2023-02-15T00:54:01.143Z,5.00
2023-02-15T00:56:29.378Z,4.98
2023-02-15T00:58:56.463Z,4.98
2023-02-15T01:01:24.557Z,4.96
2023-02-15T01:03:51.267Z,4.92
2023-02-15T01:06:18.192Z,4.90
2023-02-15T01:08:47.004Z,4.94
2023-02-15T01:11:23.025Z,5.00
2023-02-15T01:13:57.569Z,5.00
2023-02-15T01:16:27.660Z,5.00
2023-02-15T01:18:55.591Z,5.00
2023-02-15T01:21:25.389Z,5.00
2023-02-15T01:23:51.880Z,5.00
2023-02-15T01:26:18.717Z,4.96
2023-02-15T01:28:45.742Z,4.94
2023-02-15T01:31:16.462Z,4.92
2023-02-15T01:33:42.994Z,4.90
2023-02-15T01:36:09.744Z,4.92
2023-02-15T01:38:37.137Z,4.96
2023-02-15T01:41:22.696Z,5.00
2023-02-15T01:44:05.042Z,5.00
2023-02-15T01:46:52.904Z,5.00
2023-02-15T01:49:26.096Z,5.00
2023-02-15T01:51:53.799Z,5.00
2023-02-15T01:54:30.509Z,5.00
2023-02-15T01:57:03.348Z,5.00
2023-02-15T01:59:32.165Z,4.92
2023-02-15T02:02:01.349Z,4.92
2023-02-15T02:04:45.359Z,4.92
2023-02-15T02:07:15.988Z,4.98
2023-02-15T02:09:42.920Z,5.00
2023-02-15T02:24:33.242Z,5.16
2023-02-15T02:27:30.721Z,5.52
2023-02-15T02:30:32.041Z,5.60
2023-02-15T02:33:43.895Z,5.60
2023-02-15T02:36:43.094Z,5.50
2023-02-15T02:39:46.391Z,5.40
2023-02-15T02:42:24.911Z,5.32
2023-02-15T02:45:04.015Z,5.30
2023-02-15T02:47:55.521Z,5.22
2023-02-15T02:50:29.896Z,5.20
2023-02-15T02:52:59.147Z,5.20
2023-02-15T02:55:36.666Z,5.10
2023-02-15T02:58:18.023Z,5.10
2023-02-15T03:00:54.167Z,5.00
2023-02-15T03:03:53.719Z,5.00
2023-02-15T03:06:34.080Z,5.00
2023-02-15T03:09:19.036Z,4.90
2023-02-15T03:11:47.049Z,4.90
2023-02-15T03:14:16.928Z,4.90
2023-02-15T03:16:48.749Z,4.90
2023-02-15T03:19:24.550Z,4.90
2023-02-15T03:22:10.327Z,4.90
2023-02-15T03:24:46.930Z,4.90
2023-02-15T03:27:27.003Z,4.90
2023-02-15T03:29:59.657Z,4.90
2023-02-15T03:32:32.004Z,4.90
2023-02-15T03:34:58.614Z,4.90
2023-02-15T03:37:45.394Z,4.90
2023-02-15T03:40:51.381Z,4.90
2023-02-15T03:43:52.986Z,4.90
2023-02-15T03:46:31.835Z,4.90
2023-02-15T03:49:11.739Z,4.90
2023-02-15T03:51:43.529Z,4.90
2023-02-15T03:54:43.218Z,4.90
2023-02-15T03:57:40.191Z,4.90
2023-02-15T04:00:39.824Z,4.90
2023-02-15T04:03:44.969Z,4.80
2023-02-15T04:06:11.364Z,4.80
2023-02-15T04:08:56.443Z,4.80
2023-02-15T04:11:22.823Z,4.80
2023-02-15T04:13:57.671Z,4.80
2023-02-15T04:16:25.590Z,4.80
2023-02-15T04:19:11.034Z,4.88
2023-02-15T04:21:55.941Z,4.90
2023-02-15T04:24:40.827Z,4.90
2023-02-15T04:27:07.239Z,4.90
2023-02-15T04:29:33.797Z,4.82
2023-02-15T04:32:02.589Z,4.82
2023-02-15T04:34:29.193Z,4.80
2023-02-15T04:36:55.838Z,4.80
2023-02-15T04:39:22.235Z,4.80
2023-02-15T04:41:48.906Z,4.80
2023-02-15T04:44:15.750Z,4.80
2023-02-15T04:46:42.165Z,4.80
2023-02-15T04:49:09.565Z,4.70
2023-02-15T04:51:36.062Z,4.70
2023-02-15T04:54:02.483Z,4.70
2023-02-15T04:56:30.920Z,4.70
2023-02-15T04:58:57.941Z,4.70
2023-02-15T05:01:24.346Z,4.70
2023-02-15T05:03:50.811Z,4.70
2023-02-15T05:06:17.346Z,4.70
2023-02-15T05:08:43.728Z,4.70
2023-02-15T05:11:10.221Z,4.70
2023-02-15T05:13:36.715Z,4.70
2023-02-15T05:16:03.616Z,4.70
2023-02-15T05:18:30.341Z,4.76
2023-02-15T05:20:56.940Z,4.80
2023-02-15T05:23:23.450Z,4.80
2023-02-15T05:26:10.272Z,4.80
2023-02-15T05:28:39.260Z,4.80
2023-02-15T05:31:17.622Z,4.80
2023-02-15T05:33:45.662Z,4.70
2023-02-15T05:36:12.689Z,4.70
2023-02-15T05:38:40.252Z,4.70
2023-02-15T05:41:07.848Z,4.70
2023-02-15T05:43:35.002Z,4.60
2023-02-15T05:46:03.261Z,4.60
2023-02-15T05:48:30.549Z,4.64
2023-02-15T05:51:09.017Z,4.66
2023-02-15T05:53:38.917Z,4.60
2023-02-15T05:56:07.996Z,4.62
2023-02-15T05:58:38.209Z,4.60
2023-02-15T06:01:16.348Z,4.60
2023-02-15T06:03:43.198Z,4.60
2023-02-15T06:06:10.262Z,4.60
2023-02-15T06:08:38.575Z,4.60
2023-02-15T06:11:06.084Z,4.60
2023-02-15T06:13:35.406Z,4.60
2023-02-15T06:16:03.440Z,4.60
2023-02-15T06:18:30.074Z,4.60
2023-02-15T06:20:56.459Z,4.60
2023-02-15T06:23:22.872Z,4.62
2023-02-15T06:25:49.538Z,4.70
2023-02-15T06:28:15.940Z,4.66
2023-02-15T06:30:42.418Z,4.66
2023-02-15T06:33:08.897Z,4.64
2023-02-15T06:35:35.464Z,4.64
2023-02-15T06:38:02.029Z,4.70
2023-02-15T06:40:28.412Z,4.70
2023-02-15T06:42:54.838Z,4.70
2023-02-15T06:45:21.268Z,4.70
2023-02-15T06:47:47.666Z,4.70
2023-02-15T06:50:14.077Z,4.72
2023-02-15T06:52:40.435Z,4.78
2023-02-15T06:55:07.534Z,4.80
2023-02-15T06:57:34.148Z,4.80
2023-02-15T07:00:00.767Z,4.78
2023-02-15T07:02:27.311Z,4.80
2023-02-15T07:04:53.728Z,4.72
2023-02-15T07:07:20.146Z,4.70
2023-02-15T07:09:46.552Z,4.70
2023-02-15T07:12:31.625Z,4.70
2023-02-15T07:14:59.207Z,4.78
2023-02-15T07:17:36.864Z,4.80
2023-02-15T07:20:18.748Z,4.90
2023-02-15T07:22:45.983Z,4.90
2023-02-15T07:25:13.305Z,4.90
2023-02-15T07:27:41.099Z,4.90
2023-02-15T07:30:13.543Z,4.90
2023-02-15T07:33:00.826Z,4.90
2023-02-15T07:35:28.285Z,4.90
2023-02-15T07:37:55.145Z,4.90
2023-02-15T07:40:24.242Z,4.90
2023-02-15T07:42:54.343Z,4.90
2023-02-15T07:45:22.165Z,4.94
2023-02-15T07:47:48.662Z,5.00
2023-02-15T07:50:15.369Z,5.00
2023-02-15T07:52:41.755Z,5.10
2023-02-15T07:55:10.075Z,5.10
2023-02-15T07:57:37.080Z,5.10
2023-02-15T08:00:05.127Z,5.10
2023-02-15T08:02:31.594Z,5.12
2023-02-15T08:04:58.111Z,5.14
2023-02-15T08:07:24.495Z,5.10
2023-02-15T08:09:51.868Z,5.10
2023-02-15T08:12:18.337Z,5.10
2023-02-15T08:14:44.800Z,5.10
2023-02-15T08:17:11.221Z,5.10
2023-02-15T08:19:37.829Z,5.10
2023-02-15T08:22:07.984Z,5.20
2023-02-15T08:24:40.638Z,5.20
2023-02-15T08:27:10.802Z,5.30
2023-02-15T08:29:38.724Z,5.30
2023-02-15T08:32:10.049Z,5.30
2023-02-15T08:34:42.982Z,5.30
2023-02-15T08:37:10.284Z,5.30
2023-02-15T08:39:36.721Z,5.30
2023-02-15T08:42:03.683Z,5.30
2023-02-15T08:44:30.527Z,5.30
2023-02-15T08:47:03.773Z,5.32
2023-02-15T08:49:30.495Z,5.40
2023-02-15T08:51:56.943Z,5.40
2023-02-15T08:54:23.665Z,5.48
2023-02-15T08:56:50.132Z,5.50
2023-02-15T08:59:23.152Z,5.54
2023-02-15T09:01:52.571Z,5.50
2023-02-15T09:04:20.800Z,5.50
2023-02-15T09:06:49.869Z,5.46
2023-02-15T09:09:18.736Z,5.40
2023-02-15T09:11:49.334Z,5.40
2023-02-15T09:14:25.526Z,5.40
2023-02-15T09:16:53.880Z,5.40
2023-02-15T09:19:23.219Z,5.50
2023-02-15T09:21:50.115Z,5.50
2023-02-15T09:24:19.018Z,5.50
2023-02-15T09:26:48.951Z,5.50
2023-02-15T09:29:17.991Z,5.44
2023-02-15T09:31:49.663Z,5.40
2023-02-15T09:34:21.044Z,5.40
2023-02-15T09:36:47.976Z,5.40
2023-02-15T09:39:22.456Z,5.40
2023-02-15T09:42:33.845Z,5.40
2023-02-15T09:45:27.976Z,5.40
2023-02-15T09:48:03.363Z,5.38
2023-02-15T09:51:02.657Z,5.30
2023-02-15T09:53:59.527Z,5.40
2023-02-15T09:57:20.339Z,5.30
2023-02-15T10:00:14.984Z,5.34
2023-02-15T10:03:06.861Z,5.34
2023-02-15T10:05:49.826Z,5.30
2023-02-15T10:08:49.516Z,5.30
2023-02-15T10:12:08.248Z,5.40
2023-02-15T10:14:58.492Z,5.40
2023-02-15T10:17:52.272Z,5.42
2023-02-15T10:20:30.027Z,5.48
2023-02-15T10:23:21.156Z,5.50
2023-02-15T10:26:12.540Z,5.50
2023-02-15T10:29:09.697Z,5.40
2023-02-15T10:31:57.887Z,5.40
2023-02-15T10:35:31.808Z,5.30
2023-02-15T10:38:16.646Z,5.30
2023-02-15T10:41:14.809Z,5.30
2023-02-15T10:44:09.343Z,5.30
2023-02-15T10:46:55.127Z,5.30
2023-02-15T10:49:43.477Z,5.30
2023-02-15T10:52:45.557Z,5.32
2023-02-15T10:55:46.257Z,5.40
2023-02-15T10:58:45.794Z,5.40
2023-02-15T11:01:31.877Z,5.40
2023-02-15T11:04:29.896Z,5.30
2023-02-15T11:07:05.608Z,5.30
2023-02-15T11:09:43.664Z,5.40
2023-02-15T11:12:17.428Z,5.40
2023-02-15T11:15:36.424Z,5.40
2023-02-15T11:18:16.584Z,5.34
2023-02-15T11:20:55.380Z,5.30
2023-02-15T11:23:22.956Z,5.30
2023-02-15T11:26:26.533Z,5.22
2023-02-15T11:29:37.552Z,5.20
2023-02-15T11:32:26.028Z,5.20
2023-02-15T11:35:11.968Z,5.22
2023-02-15T11:37:51.648Z,5.20
2023-02-15T11:40:42.030Z,5.20
2023-02-15T11:43:24.807Z,5.20
2023-02-15T11:45:51.645Z,5.20
2023-02-15T11:48:19.130Z,5.20
2023-02-15T11:50:47.046Z,5.20
2023-02-15T11:53:16.829Z,5.28
2023-02-15T11:55:47.491Z,5.30
2023-02-15T11:58:42.703Z,5.40
2023-02-15T12:01:24.398Z,5.40
2023-02-15T12:04:00.674Z,5.46
2023-02-15T12:06:53.008Z,5.50
2023-02-15T12:09:37.039Z,5.50
2023-02-15T12:12:36.282Z,5.60
2023-02-15T12:15:09.716Z,5.60
2023-02-15T12:17:55.430Z,5.60
2023-02-15T12:20:37.198Z,5.62
2023-02-15T12:23:12.600Z,5.70
2023-02-15T12:25:44.596Z,5.62
2023-02-15T12:28:31.489Z,5.66
2023-02-15T12:30:59.543Z,5.60
2023-02-15T12:33:46.460Z,5.60
2023-02-15T12:36:21.436Z,5.50
2023-02-15T12:39:28.438Z,5.46
2023-02-15T12:41:54.908Z,5.40
2023-02-15T12:44:29.728Z,5.30
2023-02-15T12:47:19.726Z,5.30
2023-02-15T12:50:12.276Z,5.30
2023-02-15T12:52:40.277Z,5.40
2023-02-15T12:55:31.037Z,5.40
2023-02-15T12:58:17.325Z,5.40
2023-02-15T13:00:43.921Z,5.40
2023-02-15T13:03:21.270Z,5.40
2023-02-15T13:05:52.813Z,5.40
2023-02-15T13:08:33.980Z,5.40
2023-02-15T13:11:11.789Z,5.40
2023-02-15T13:13:57.870Z,5.40
2023-02-15T13:16:36.018Z,5.40
2023-02-15T13:19:15.624Z,5.40
2023-02-15T13:21:48.023Z,5.40
2023-02-15T13:24:46.477Z,5.40
2023-02-15T13:27:20.569Z,5.40
2023-02-15T13:30:00.216Z,5.30
2023-02-15T13:32:37.268Z,5.30
2023-02-15T13:35:08.221Z,5.20
2023-02-15T13:38:16.963Z,5.20
2023-02-15T13:40:56.400Z,5.20
2023-02-15T13:43:51.620Z,5.20
2023-02-15T13:46:36.895Z,5.18
2023-02-15T13:49:44.674Z,5.10
2023-02-15T13:52:29.538Z,5.06
2023-02-15T13:55:58.360Z,5.00
2023-02-15T13:58:48.734Z,4.90
2023-02-15T14:01:36.123Z,4.90
2023-02-15T14:04:48.269Z,4.90
2023-02-15T14:08:12.906Z,4.90
2023-02-15T14:11:05.206Z,4.90
2023-02-15T14:14:01.811Z,5.00
2023-02-15T14:17:00.673Z,5.00
2023-02-15T14:19:47.207Z,5.10
2023-02-15T14:22:38.866Z,5.10
2023-02-15T14:25:44.823Z,5.10
2023-02-15T14:28:52.109Z,5.10
2023-02-15T14:31:29.372Z,5.10
2023-02-15T14:34:00.424Z,5.00
2023-02-15T14:36:31.233Z,4.96
2023-02-15T14:39:41.810Z,4.90
2023-02-15T14:42:38.077Z,4.90
2023-02-15T14:45:44.648Z,4.90
2023-02-15T14:48:26.881Z,4.90
2023-02-15T14:50:54.127Z,4.90
2023-02-15T14:53:33.069Z,4.90
2023-02-15T14:56:14.720Z,4.80
2023-02-15T14:58:57.222Z,4.80
2023-02-15T15:01:33.998Z,4.70
2023-02-15T15:04:09.352Z,4.70
2023-02-15T15:06:42.102Z,4.60
2023-02-15T15:09:25.479Z,4.60
2023-02-15T15:12:36.900Z,4.60
2023-02-15T15:15:04.935Z,4.62
2023-02-15T15:17:34.411Z,4.62
2023-02-15T15:20:35.315Z,4.66
2023-02-15T15:23:40.178Z,4.70
2023-02-15T15:26:34.423Z,4.60
2023-02-15T15:29:03.001Z,4.60
2023-02-15T15:31:35.544Z,4.60
2023-02-15T15:34:24.574Z,4.50
2023-02-15T15:37:30.232Z,4.48
2023-02-15T15:40:42.780Z,4.48
2023-02-15T15:43:34.071Z,4.46
2023-02-15T15:46:45.122Z,4.40
2023-02-15T15:49:19.027Z,4.40
2023-02-15T15:51:47.391Z,4.24
2023-02-15T15:54:25.189Z,4.16
2023-02-15T15:57:00.366Z,4.10
2023-02-15T15:59:32.189Z,4.10
2023-02-15T16:02:16.855Z,4.08
2023-02-15T16:04:45.192Z,4.00
2023-02-15T16:07:25.829Z,4.00
2023-02-15T16:10:02.637Z,3.90
2023-02-15T16:12:33.198Z,3.90
2023-02-15T16:15:14.219Z,3.90
2023-02-15T16:17:45.043Z,3.84
2023-02-15T16:20:22.907Z,3.80
2023-02-15T16:23:31.376Z,3.80
2023-02-15T16:26:32.050Z,3.80
2023-02-15T16:28:59.613Z,3.70
2023-02-15T16:31:26.106Z,3.70
2023-02-15T16:33:55.956Z,3.70
2023-02-15T16:36:27.077Z,3.60
2023-02-15T16:38:53.375Z,3.60
2023-02-15T16:41:28.183Z,3.58
2023-02-15T16:43:58.848Z,3.50
2023-02-15T16:46:33.428Z,3.40
2023-02-15T16:49:14.948Z,3.34
2023-02-15T16:51:46.021Z,3.24
2023-02-15T16:54:22.663Z,3.14
2023-02-15T16:56:49.507Z,3.00
2023-02-15T16:59:40.530Z,2.90
2023-02-15T17:02:37.228Z,2.80
2023-02-15T17:05:13.035Z,2.80
2023-02-15T17:07:42.965Z,2.70
2023-02-15T17:10:29.012Z,2.60
2023-02-15T17:13:02.367Z,2.50
2023-02-15T17:15:37.429Z,2.50
2023-02-15T17:18:13.631Z,2.50
2023-02-15T17:20:45.104Z,2.40
2023-02-15T17:23:33.348Z,2.38
2023-02-15T17:26:12.007Z,2.30
2023-02-15T17:28:46.233Z,2.20
2023-02-15T17:31:17.386Z,2.12
2023-02-15T17:33:44.556Z,2.10
2023-02-15T17:36:20.232Z,2.10
2023-02-15T17:39:27.028Z,2.00
2023-02-15T17:41:53.930Z,2.00
2023-02-15T17:44:20.483Z,2.00
2023-02-15T17:46:46.948Z,1.90
2023-02-15T17:49:37.999Z,1.90
2023-02-15T17:52:04.807Z,1.80
2023-02-15T17:54:49.754Z,1.70
2023-02-15T17:57:16.364Z,1.70
2023-02-15T18:00:01.590Z,1.70
2023-02-15T18:02:54.007Z,1.70
2023-02-15T18:05:40.048Z,1.72
2023-02-15T18:08:32.566Z,1.70
2023-02-15T18:11:18.468Z,1.70
2023-02-15T18:13:45.206Z,1.70
2023-02-15T18:16:23.919Z,1.70
2023-02-15T18:18:50.509Z,1.70
2023-02-15T18:21:20.351Z,1.60
2023-02-15T18:23:46.909Z,1.50
2023-02-15T18:26:22.296Z,1.58
2023-02-15T18:28:50.509Z,1.60
2023-02-15T18:31:19.031Z,1.62
2023-02-15T18:33:50.103Z,1.68
2023-02-15T18:36:28.098Z,1.68
2023-02-15T18:38:58.007Z,1.70
2023-02-15T18:41:25.141Z,1.68
2023-02-15T18:43:54.448Z,1.70
2023-02-15T18:46:21.943Z,1.70
2023-02-15T18:48:48.622Z,1.70
2023-02-15T18:51:21.626Z,1.72
2023-02-15T18:53:52.877Z,1.70
2023-02-15T18:56:22.858Z,1.70
2023-02-15T18:58:49.457Z,1.70
2023-02-15T19:01:21.282Z,1.70
2023-02-15T19:03:50.604Z,1.60
2023-02-15T19:06:24.803Z,1.60
2023-02-15T19:08:53.101Z,1.70
2023-02-15T19:11:23.627Z,1.70
2023-02-15T19:13:52.602Z,1.70
2023-02-15T19:16:35.086Z,1.70
2023-02-15T19:19:02.170Z,1.70
2023-02-15T19:21:32.026Z,1.70
2023-02-15T19:24:05.094Z,1.70
2023-02-15T19:26:44.567Z,1.70
2023-02-15T19:29:15.814Z,1.70
2023-02-15T19:31:42.708Z,1.70
2023-02-15T19:34:18.699Z,1.70
2023-02-15T19:36:50.025Z,1.70
2023-02-15T19:39:35.387Z,1.70
2023-02-15T19:42:01.846Z,1.70
2023-02-15T19:44:28.333Z,1.70
2023-02-15T19:46:54.756Z,1.70
2023-02-15T19:49:21.308Z,1.70
2023-02-15T19:51:48.482Z,1.70
2023-02-15T19:54:33.280Z,1.70
2023-02-15T19:57:00.500Z,1.60
2023-02-15T19:59:32.998Z,1.60
2023-02-15T20:02:00.037Z,1.60
2023-02-15T20:04:27.256Z,1.68
2023-02-15T20:06:57.582Z,1.70
2023-02-15T20:09:31.745Z,1.70
2023-02-15T20:11:58.270Z,1.70
2023-02-15T20:14:24.814Z,1.70
2023-02-15T20:16:51.714Z,1.70
2023-02-15T20:19:18.189Z,1.70
2023-02-15T20:21:51.818Z,1.70
2023-02-15T20:24:22.184Z,1.70
2023-02-15T20:26:48.749Z,1.70
2023-02-15T20:29:18.523Z,1.70
2023-02-15T20:31:45.772Z,1.80
2023-02-15T20:34:12.306Z,1.80
2023-02-15T20:36:39.987Z,1.80
2023-02-15T20:39:17.322Z,1.80
2023-02-15T20:41:52.775Z,1.70
2023-02-15T20:44:29.024Z,1.68
2023-02-15T20:46:59.003Z,1.62
2023-02-15T20:49:27.470Z,1.64
2023-02-15T20:51:56.418Z,1.70
2023-02-15T20:54:27.098Z,1.70
2023-02-15T20:56:54.390Z,1.70
2023-02-15T20:59:32.461Z,1.70
2023-02-15T21:02:18.207Z,1.78
2023-02-15T21:04:45.548Z,1.70
2023-02-15T21:07:21.725Z,1.70
2023-02-15T21:09:49.256Z,1.60
2023-02-15T21:12:18.843Z,1.60
2023-02-15T21:14:45.986Z,1.60
2023-02-15T21:17:15.884Z,1.60
2023-02-15T21:19:42.671Z,1.62
2023-02-15T21:22:14.121Z,1.70
2023-02-15T21:24:50.676Z,1.70
2023-02-15T21:27:17.767Z,1.70
2023-02-15T21:29:44.204Z,1.76
2023-02-15T21:32:11.174Z,1.72
2023-02-15T21:34:37.812Z,1.70
2023-02-15T21:37:05.090Z,1.70
2023-02-15T21:39:35.662Z,1.70
2023-02-15T21:42:20.546Z,1.70
2023-02-15T21:45:05.318Z,1.70
2023-02-15T21:47:52.677Z,1.60
2023-02-15T21:50:42.459Z,1.60
2023-02-15T21:53:13.851Z,1.50
2023-02-15T21:55:40.338Z,1.50
2023-02-15T21:58:06.917Z,1.60
2023-02-15T22:00:34.371Z,1.60
2023-02-15T22:03:01.936Z,1.60
2023-02-15T22:05:33.260Z,1.60
2023-02-15T22:08:00.668Z,1.60
2023-02-15T22:10:31.455Z,1.60
2023-02-15T22:13:03.349Z,1.50
2023-02-15T22:15:36.786Z,1.50
2023-02-15T22:18:05.664Z,1.50
2023-02-15T22:20:32.155Z,1.50
2023-02-15T22:22:58.512Z,1.50
2023-02-15T22:25:26.657Z,1.50
2023-02-15T22:27:54.779Z,1.50
2023-02-15T22:30:26.267Z,1.40
2023-02-15T22:32:54.767Z,1.30
2023-02-15T22:35:29.256Z,1.30
2023-02-15T22:37:56.380Z,1.30
2023-02-15T22:40:30.582Z,1.30
2023-02-15T22:43:00.542Z,1.28
2023-02-15T22:45:30.609Z,1.20
2023-02-15T22:48:00.296Z,1.20
2023-02-15T22:50:32.542Z,1.20
2023-02-15T22:53:01.975Z,1.20
2023-02-15T22:55:36.441Z,1.20
2023-02-15T22:58:04.335Z,1.16
2023-02-15T23:00:40.305Z,1.20
2023-02-15T23:03:28.985Z,1.20
2023-02-15T23:05:55.427Z,1.10
2023-02-15T23:08:21.967Z,1.00
2023-02-15T23:10:55.754Z,0.90
2023-02-15T23:13:30.126Z,0.90
2023-02-15T23:16:02.145Z,0.90
2023-02-15T23:18:37.912Z,0.90
2023-02-15T23:21:28.748Z,0.90
2023-02-15T23:24:00.903Z,0.90
2023-02-15T23:26:31.592Z,0.90
2023-02-15T23:29:01.297Z,0.90
2023-02-15T23:31:32.490Z,0.80
2023-02-15T23:34:16.559Z,0.70
2023-02-15T23:36:44.388Z,0.70
2023-02-15T23:39:40.214Z,0.60
2023-02-15T23:42:12.735Z,0.60
2023-02-15T23:44:40.720Z,0.60
2023-02-15T23:47:48.250Z,0.60
2023-02-15T23:50:30.447Z,0.60
2023-02-15T23:52:57.702Z,0.66
2023-02-15T23:55:36.210Z,0.70
2023-02-15T23:58:06.220Z,0.66
